| time (UTC) | temp F | wind direction | speed knots | gust knots | rain 1hr in | rain 24hr in | rain mn in | humidity % | barometer mb |
| 20260504000403 | 76 | 147 | 0.9 | 7.8 | 0.00 | 0.00 | 0.00 | 40 | 1018.2 |
| 20260503235904 | 76 | 183 | 2.6 | 7.8 | 0.00 | 0.00 | 0.00 | 40 | 1018.1 |
| 20260503235404 | 77 | 161 | 4.3 | 7.0 | 0.00 | 0.00 | 0.00 | 38 | 1018.2 |
| 20260503234904 | 78 | 146 | 4.3 | 7.8 | 0.00 | 0.00 | 0.00 | 38 | 1018.3 |
| 20260503234404 | 78 | 173 | 4.3 | 7.8 | 0.00 | 0.00 | 0.00 | 37 | 1018.3 |
| 20260503233905 | 79 | 160 | 1.7 | 7.0 | 0.00 | 0.00 | 0.00 | 38 | 1018.3 |
| 20260503232403 | 80 | 172 | 2.6 | 7.8 | 0.00 | 0.00 | 0.00 | 36 | 1018.4 |
| 20260503231904 | 80 | 180 | 2.6 | 7.8 | 0.00 | 0.00 | 0.00 | 37 | 1018.4 |
| 20260503230904 | 80 | 174 | 1.7 | 8.7 | 0.00 | 0.00 | 0.00 | 37 | 1018.5 |
| 20260503230404 | 80 | 163 | 2.6 | 8.7 | 0.00 | 0.00 | 0.00 | 36 | 1018.6 |
| 20260503225905 | 80 | 160 | 1.7 | 7.0 | 0.00 | 0.00 | 0.00 | 36 | 1018.5 |
| 20260503225405 | 80 | 161 | 2.6 | 10.4 | 0.00 | 0.00 | 0.00 | 35 | 1018.6 |
| 20260503224403 | 81 | 142 | 2.6 | 7.8 | 0.00 | 0.00 | 0.00 | 36 | 1018.6 |
| 20260503223904 | 81 | 127 | 1.7 | 7.0 | 0.00 | 0.00 | 0.00 | 35 | 1018.7 |
| 20260503223404 | 82 | 142 | 2.6 | 7.8 | 0.00 | 0.00 | 0.00 | 33 | 1018.9 |
| 20260503222404 | 83 | 146 | 2.6 | 10.4 | 0.00 | 0.00 | 0.00 | 33 | 1018.9 |
| 20260503221904 | 83 | 139 | 2.6 | 10.4 | 0.00 | 0.00 | 0.00 | 34 | 1018.8 |
| 20260503220904 | 83 | 119 | 1.7 | 7.8 | 0.00 | 0.00 | 0.00 | 31 | 1018.9 |
| 20260503220404 | 83 | 156 | 3.5 | 7.8 | 0.00 | 0.00 | 0.00 | 32 | 1018.9 |
| 20260503215905 | 84 | 129 | 1.7 | 7.8 | 0.00 | 0.00 | 0.00 | 33 | 1018.9 |
| 20260503215404 | 84 | 174 | 1.7 | 7.0 | 0.00 | 0.00 | 0.00 | 32 | 1019.0 |
| 20260503214404 | 85 | 156 | 2.6 | 7.0 | 0.00 | 0.00 | 0.00 | 30 | 1019.2 |
| 20260503213904 | 84 | 184 | 1.7 | 10.4 | 0.00 | 0.00 | 0.00 | 36 | 1019.3 |
| 20260503212904 | 84 | 146 | 4.3 | 8.7 | 0.00 | 0.00 | 0.00 | 29 | 1019.4 |
| 20260503212404 | 84 | 132 | 2.6 | 8.7 | 0.00 | 0.00 | 0.00 | 32 | 1019.5 |
| 20260503211405 | 83 | 70 | 2.6 | 10.4 | 0.00 | 0.00 | 0.00 | 32 | 1019.5 |
| 20260503210904 | 84 | 103 | 0.9 | 10.4 | 0.00 | 0.00 | 0.00 | 27 | 1019.6 |
| 20260503210403 | 85 | 148 | 4.3 | 10.4 | 0.00 | 0.00 | 0.00 | 30 | 1019.7 |
| 20260503205904 | 84 | 180 | 2.6 | 10.4 | 0.00 | 0.00 | 0.00 | 30 | 1019.8 |
| 20260503205404 | 84 | 122 | 1.7 | 8.7 | 0.00 | 0.00 | 0.00 | 30 | 1019.8 |
| 20260503204904 | 84 | 165 | 3.5 | 10.4 | 0.00 | 0.00 | 0.00 | 30 | 1019.8 |
| 20260503203904 | 83 | 146 | 5.2 | 10.4 | 0.00 | 0.00 | 0.00 | 31 | 1020.0 |
| 20260503203404 | 83 | 89 | 2.6 | 7.8 | 0.00 | 0.00 | 0.00 | 33 | 1020.2 |
| 20260503202905 | 83 | 134 | 1.7 | 7.8 | 0.00 | 0.00 | 0.00 | 33 | 1020.2 |
| 20260503202404 | 84 | 120 | 2.6 | 7.8 | 0.00 | 0.00 | 0.00 | 30 | 1020.3 |
| 20260503201904 | 84 | 155 | 1.7 | 7.8 | 0.00 | 0.00 | 0.00 | 30 | 1020.4 |
| 20260503200904 | 84 | 138 | 2.6 | 8.7 | 0.00 | 0.00 | 0.00 | 29 | 1020.6 |
| 20260503200405 | 84 | 77 | 2.6 | 7.8 | 0.00 | 0.00 | 0.00 | 31 | 1020.7 |
| 20260503195904 | 84 | 146 | 2.6 | 8.7 | 0.00 | 0.00 | 0.00 | 33 | 1020.7 |
| 20260503195404 | 84 | 149 | 4.3 | 8.7 | 0.00 | 0.00 | 0.00 | 31 | 1020.7 |
| 20260503194904 | 84 | 92 | 2.6 | 7.0 | 0.00 | 0.00 | 0.00 | 32 | 1020.7 |
| 20260503193904 | 84 | 88 | 1.7 | 7.8 | 0.00 | 0.00 | 0.00 | 33 | 1020.9 |
| 20260503192904 | 83 | 61 | 1.7 | 7.8 | 0.00 | 0.00 | 0.00 | 33 | 1021.2 |
| 20260503192404 | 83 | 106 | 2.6 | 7.0 | 0.00 | 0.00 | 0.00 | 34 | 1021.3 |
| 20260503191904 | 83 | 154 | 2.6 | 7.8 | 0.00 | 0.00 | 0.00 | 31 | 1021.3 |
| 20260503191404 | 83 | 113 | 2.6 | 7.8 | 0.00 | 0.00 | 0.00 | 35 | 1021.3 |
| 20260503190904 | 83 | 129 | 2.6 | 7.8 | 0.00 | 0.00 | 0.00 | 31 | 1021.4 |
| 20260503190405 | 83 | 144 | 2.6 | 7.0 | 0.00 | 0.00 | 0.00 | 31 | 1021.5 |
| 20260503185904 | 83 | 117 | 0.9 | 7.8 | 0.00 | 0.00 | 0.00 | 33 | 1021.6 |
| 20260503184905 | 83 | 97 | 4.3 | 8.7 | 0.00 | 0.00 | 0.00 | 32 | 1021.7 |
| 20260503184403 | 83 | 168 | 0.9 | 7.8 | 0.00 | 0.00 | 0.00 | 30 | 1021.6 |
| 20260503183904 | 83 | 84 | 3.5 | 7.8 | 0.00 | 0.00 | 0.00 | 30 | 1021.8 |
| 20260503183404 | 83 | 144 | 2.6 | 8.7 | 0.00 | 0.00 | 0.00 | 30 | 1021.8 |
| 20260503182403 | 83 | 158 | 3.5 | 7.8 | 0.00 | 0.00 | 0.00 | 29 | 1021.9 |
| 20260503181905 | 83 | 148 | 3.5 | 7.8 | 0.00 | 0.00 | 0.00 | 33 | 1022.0 |
| 20260503181404 | 83 | 168 | 1.7 | 6.1 | 0.00 | 0.00 | 0.00 | 31 | 1022.0 |
| 20260503180903 | 83 | 75 | 0.9 | 6.1 | 0.00 | 0.00 | 0.00 | 32 | 1022.1 |
| 20260503180403 | 83 | 131 | 1.7 | 6.1 | 0.00 | 0.00 | 0.00 | 32 | 1022.2 |
| 20260503175904 | 83 | 46 | 0.9 | 7.0 | 0.00 | 0.00 | 0.00 | 34 | 1022.3 |
| 20260503175404 | 82 | 100 | 2.6 | 7.0 | 0.00 | 0.00 | 0.00 | 31 | 1022.4 |
| 20260503174904 | 82 | 156 | 2.6 | 8.7 | 0.00 | 0.00 | 0.00 | 34 | 1022.4 |
| 20260503174405 | 82 | 115 | 2.6 | 8.7 | 0.00 | 0.00 | 0.00 | 30 | 1022.6 |
| 20260503173904 | 81 | 173 | 4.3 | 10.4 | 0.00 | 0.00 | 0.00 | 32 | 1022.7 |
| 20260503173403 | 81 | 166 | 4.3 | 10.4 | 0.00 | 0.00 | 0.00 | 32 | 1022.7 |
| 20260503172905 | 82 | 147 | 1.7 | 8.7 | 0.00 | 0.00 | 0.00 | 30 | 1022.8 |
| 20260503171904 | 82 | 164 | 5.2 | 8.7 | 0.00 | 0.00 | 0.00 | 33 | 1022.9 |
| 20260503170905 | 82 | 121 | 1.7 | 10.4 | 0.00 | 0.00 | 0.00 | 33 | 1022.9 |
| 20260503170404 | 82 | 135 | 4.3 | 10.4 | 0.00 | 0.00 | 0.00 | 33 | 1022.9 |
| 20260503150405 | 78 | 140 | 2.6 | 7.0 | 0.00 | 0.00 | 0.00 | 39 | 1022.7 |
| 20260503131405 | 60 | 239 | 0.0 | 0.0 | 0.00 | 0.00 | 0.00 | 90 | 1022.1 |
| 20260503130904 | 59 | 226 | 0.0 | 0.9 | 0.00 | 0.00 | 0.00 | 90 | 1022.1 |
| 20260503110404 | 54 | 23 | 0.0 | 0.0 | 0.00 | 0.01 | 0.00 | 85 | 1021.2 |
| 20260503090403 | 56 | 23 | 0.0 | 0.0 | 0.00 | 0.13 | 0.00 | 83 | 1020.6 |
| 20260503080404 | 56 | 23 | 0.0 | 0.0 | 0.00 | 0.50 | 0.00 | 82 | 1020.7 |
| 20260503072904 | 57 | 23 | 0.0 | 0.0 | 0.00 | 0.88 | 0.00 | 80 | 1020.6 |
| 20260503071904 | 57 | 23 | 0.0 | 0.0 | 0.00 | 0.94 | 0.00 | 80 | 1020.6 |
| 20260503071404 | 57 | 23 | 0.0 | 0.0 | 0.00 | 1.02 | 0.00 | 79 | 1020.7 |
| 20260503070904 | 58 | 23 | 0.0 | 0.0 | 0.00 | 1.17 | 0.00 | 79 | 1020.6 |
| 20260503070405 | 58 | 23 | 0.0 | 0.0 | 0.00 | 1.32 | 0.00 | 79 | 1020.6 |
| 20260503054905 | 59 | 23 | 0.0 | 0.0 | 0.00 | 1.55 | 0.00 | 75 | 1020.7 |
| 20260503054404 | 60 | 23 | 0.0 | 0.0 | 0.00 | 1.55 | 0.00 | 75 | 1020.7 |
| 20260503053904 | 60 | 23 | 0.0 | 0.0 | 0.00 | 1.55 | 0.00 | 74 | 1020.6 |
| 20260503052904 | 60 | 23 | 0.0 | 0.9 | 0.00 | 1.55 | 0.00 | 74 | 1020.6 |
| 20260503052405 | 60 | 23 | 0.0 | 0.9 | 0.00 | 1.55 | 0.00 | 74 | 1020.5 |
| 20260503051903 | 60 | 23 | 0.0 | 0.9 | 0.00 | 1.55 | 0.00 | 74 | 1020.5 |
| 20260503051404 | 60 | 23 | 0.0 | 0.0 | 0.00 | 1.55 | 0.00 | 74 | 1020.5 |
| 20260503050404 | 60 | 23 | 0.0 | 0.0 | 0.00 | 1.55 | 0.00 | 74 | 1020.5 |
| 20260503045905 | 60 | 23 | 0.0 | 0.0 | 0.00 | 1.55 | 0.00 | 73 | 1020.5 |
| 20260503045403 | 61 | 23 | 0.0 | 0.0 | 0.00 | 1.55 | 0.00 | 73 | 1020.4 |
| 20260503044903 | 61 | 23 | 0.0 | 0.0 | 0.00 | 1.55 | 0.00 | 73 | 1020.3 |
| 20260503043404 | 61 | 23 | 0.0 | 0.0 | 0.00 | 1.56 | 0.00 | 73 | 1020.2 |
| 20260503042904 | 61 | 23 | 0.0 | 0.0 | 0.00 | 1.60 | 0.00 | 72 | 1020.4 |
| 20260503041904 | 61 | 23 | 0.0 | 1.7 | 0.00 | 1.86 | 0.00 | 71 | 1020.4 |
| 20260503041404 | 62 | 23 | 0.0 | 0.0 | 0.00 | 2.08 | 0.00 | 71 | 1020.4 |
| 20260503040903 | 62 | 23 | 0.0 | 0.0 | 0.00 | 2.25 | 0.00 | 70 | 1020.3 |
| 20260503040403 | 62 | 23 | 0.0 | 0.0 | 0.00 | 2.25 | 0.00 | 70 | 1020.3 |
| 20260503035905 | 62 | 23 | 0.0 | 0.0 | 0.00 | 2.26 | 0.00 | 69 | 1020.2 |
| 20260503035405 | 62 | 23 | 0.0 | 0.0 | 0.00 | 2.26 | 0.00 | 69 | 1020.2 |
| 20260503034905 | 62 | 23 | 0.0 | 0.0 | 0.00 | 2.26 | 0.00 | 68 | 1020.1 |
| 20260503034404 | 62 | 23 | 0.0 | 0.0 | 0.00 | 2.26 | 0.00 | 68 | 1020.0 |
| 20260503033905 | 63 | 23 | 0.0 | 2.6 | 0.00 | 2.26 | 0.00 | 68 | 1020.0 |
| 20260503033404 | 63 | 23 | 0.0 | 2.6 | 0.00 | 2.26 | 0.00 | 68 | 1019.9 |
| 20260503032403 | 63 | 29 | 0.0 | 0.0 | 0.00 | 2.32 | 0.00 | 68 | 1019.8 |
| 20260503031404 | 64 | 29 | 0.0 | 0.0 | 0.00 | 2.34 | 0.00 | 67 | 1019.8 |
| 20260503030905 | 64 | 29 | 0.0 | 0.0 | 0.00 | 2.34 | 0.00 | 66 | 1019.8 |
| 20260503030404 | 64 | 29 | 0.0 | 0.0 | 0.00 | 2.34 | 0.00 | 65 | 1019.9 |
| 20260503025404 | 65 | 29 | 0.0 | 0.0 | 0.00 | 2.34 | 0.00 | 64 | 1019.7 |
| 20260503024905 | 65 | 29 | 0.0 | 0.0 | 0.00 | 2.34 | 0.00 | 63 | 1019.8 |
| 20260503024404 | 65 | 29 | 0.0 | 0.9 | 0.00 | 2.34 | 0.00 | 63 | 1019.8 |
| 20260503023904 | 65 | 29 | 0.0 | 0.9 | 0.00 | 2.34 | 0.00 | 62 | 1019.7 |
| 20260503023405 | 66 | 29 | 0.0 | 0.0 | 0.00 | 2.34 | 0.00 | 61 | 1019.6 |
| 20260503022404 | 67 | 29 | 0.0 | 0.0 | 0.00 | 2.34 | 0.00 | 59 | 1019.4 |
| 20260503021904 | 67 | 29 | 0.0 | 0.0 | 0.00 | 2.35 | 0.00 | 58 | 1019.5 |
| 20260503021405 | 67 | 29 | 0.0 | 0.0 | 0.00 | 2.35 | 0.00 | 56 | 1019.5 |
| 20260503020905 | 67 | 29 | 0.0 | 0.9 | 0.00 | 2.35 | 0.00 | 56 | 1019.5 |
| 20260503020404 | 67 | 29 | 0.0 | 1.7 | 0.00 | 2.35 | 0.00 | 55 | 1019.5 |
| 20260503015904 | 68 | 29 | 0.0 | 1.7 | 0.00 | 2.36 | 0.00 | 55 | 1019.3 |
| 20260503015405 | 68 | 29 | 0.0 | 0.0 | 0.00 | 2.37 | 0.00 | 54 | 1019.3 |
| 20260503014905 | 68 | 29 | 0.0 | 0.0 | 0.00 | 2.37 | 0.00 | 53 | 1019.2 |
| 20260503014404 | 69 | 29 | 0.0 | 1.7 | 0.00 | 2.38 | 0.00 | 52 | 1019.1 |
| 20260503013904 | 69 | 29 | 0.0 | 1.7 | 0.00 | 2.38 | 0.00 | 51 | 1019.0 |
| 20260503013404 | 69 | 29 | 0.9 | 1.7 | 0.00 | 2.38 | 0.00 | 51 | 1018.9 |
| 20260503012904 | 69 | 27 | 0.9 | 2.6 | 0.00 | 2.38 | 0.00 | 50 | 1018.9 |
| 20260503012404 | 69 | 27 | 0.0 | 2.6 | 0.00 | 2.38 | 0.00 | 50 | 1019.0 |
| 20260503011904 | 70 | 24 | 0.0 | 1.7 | 0.00 | 2.38 | 0.00 | 50 | 1018.9 |
| 20260503011404 | 70 | 23 | 0.0 | 0.0 | 0.00 | 2.38 | 0.00 | 49 | 1018.8 |
| 20260503010904 | 70 | 23 | 0.0 | 1.7 | 0.00 | 2.38 | 0.00 | 49 | 1018.8 |
| 20260503010404 | 71 | 23 | 0.9 | 1.7 | 0.00 | 2.38 | 0.00 | 48 | 1018.7 |
| 20260503005904 | 71 | 23 | 0.9 | 1.7 | 0.00 | 2.38 | 0.00 | 48 | 1018.6 |
| 20260503005403 | 71 | 23 | 0.9 | 2.6 | 0.00 | 2.38 | 0.00 | 48 | 1018.5 |
| 20260503004404 | 72 | 23 | 0.9 | 2.6 | 0.00 | 2.38 | 0.00 | 46 | 1018.4 |
| 20260503003904 | 72 | 23 | 1.7 | 2.6 | 0.00 | 2.38 | 0.00 | 46 | 1018.3 |
| 20260503003404 | 72 | 358 | 1.7 | 4.3 | 0.00 | 2.38 | 0.00 | 45 | 1018.3 |
| 20260503002404 | 73 | 17 | 1.7 | 4.3 | 0.00 | 2.38 | 0.00 | 44 | 1018.3 |
| 20260503001904 | 73 | 13 | 2.6 | 6.1 | 0.00 | 2.39 | 0.00 | 43 | 1018.2 |
| 20260503001403 | 74 | 356 | 1.7 | 6.1 | 0.00 | 2.39 | 0.00 | 42 | 1018.2 |